sensor_id;sensor_type;location;lat;lon;timestamp;temperature;humidity
44477;DHT22;30180;44.788;10.366;2024-01-16T00:01:11;17.50;61.40
44477;DHT22;30180;44.788;10.366;2024-01-16T00:03:41;17.50;61.40
44477;DHT22;30180;44.788;10.366;2024-01-16T00:06:11;17.50;61.40
44477;DHT22;30180;44.788;10.366;2024-01-16T00:08:39;17.50;61.40
44477;DHT22;30180;44.788;10.366;2024-01-16T00:11:08;17.50;61.50
44477;DHT22;30180;44.788;10.366;2024-01-16T00:13:37;17.50;61.40
44477;DHT22;30180;44.788;10.366;2024-01-16T00:16:05;17.50;61.40
44477;DHT22;30180;44.788;10.366;2024-01-16T00:18:34;17.50;61.50
44477;DHT22;30180;44.788;10.366;2024-01-16T00:21:03;17.50;61.50
44477;DHT22;30180;44.788;10.366;2024-01-16T00:23:33;17.50;61.40
44477;DHT22;30180;44.788;10.366;2024-01-16T00:26:02;17.40;61.40
44477;DHT22;30180;44.788;10.366;2024-01-16T00:28:31;17.50;61.50
44477;DHT22;30180;44.788;10.366;2024-01-16T00:31:00;17.50;61.50
44477;DHT22;30180;44.788;10.366;2024-01-16T00:33:28;17.40;61.40
44477;DHT22;30180;44.788;10.366;2024-01-16T00:35:56;17.40;61.40
44477;DHT22;30180;44.788;10.366;2024-01-16T00:38:25;17.40;61.40
44477;DHT22;30180;44.788;10.366;2024-01-16T00:40:55;17.40;61.40
44477;DHT22;30180;44.788;10.366;2024-01-16T00:43:23;17.40;61.40
44477;DHT22;30180;44.788;10.366;2024-01-16T00:45:51;17.40;61.40
44477;DHT22;30180;44.788;10.366;2024-01-16T00:48:19;17.40;61.40
44477;DHT22;30180;44.788;10.366;2024-01-16T00:50:48;17.40;61.40
44477;DHT22;30180;44.788;10.366;2024-01-16T00:53:17;17.40;61.40
44477;DHT22;30180;44.788;10.366;2024-01-16T00:55:45;17.40;61.40
44477;DHT22;30180;44.788;10.366;2024-01-16T00:58:15;17.30;61.30
44477;DHT22;30180;44.788;10.366;2024-01-16T01:00:43;17.30;61.30
44477;DHT22;30180;44.788;10.366;2024-01-16T01:03:12;17.30;61.40
44477;DHT22;30180;44.788;10.366;2024-01-16T01:05:40;17.30;61.40
44477;DHT22;30180;44.788;10.366;2024-01-16T01:08:09;17.40;61.40
44477;DHT22;30180;44.788;10.366;2024-01-16T01:10:37;17.30;61.30
44477;DHT22;30180;44.788;10.366;2024-01-16T01:13:05;17.30;61.90
44477;DHT22;30180;44.788;10.366;2024-01-16T01:15:35;17.30;61.30
44477;DHT22;30180;44.788;10.366;2024-01-16T01:18:04;17.30;61.30
44477;DHT22;30180;44.788;10.366;2024-01-16T01:20:34;17.30;61.30
44477;DHT22;30180;44.788;10.366;2024-01-16T01:23:03;17.30;61.30
44477;DHT22;30180;44.788;10.366;2024-01-16T01:25:31;17.30;61.30
44477;DHT22;30180;44.788;10.366;2024-01-16T01:28:00;17.30;61.30
44477;DHT22;30180;44.788;10.366;2024-01-16T01:30:28;17.30;61.30
44477;DHT22;30180;44.788;10.366;2024-01-16T01:32:57;17.30;61.30
44477;DHT22;30180;44.788;10.366;2024-01-16T01:35:26;17.30;61.30
44477;DHT22;30180;44.788;10.366;2024-01-16T01:37:54;17.30;61.30
44477;DHT22;30180;44.788;10.366;2024-01-16T01:40:23;17.20;61.30
44477;DHT22;30180;44.788;10.366;2024-01-16T01:42:51;17.30;61.30
44477;DHT22;30180;44.788;10.366;2024-01-16T01:45:19;17.20;61.90
44477;DHT22;30180;44.788;10.366;2024-01-16T01:47:48;17.20;61.30
44477;DHT22;30180;44.788;10.366;2024-01-16T01:50:18;17.20;61.30
44477;DHT22;30180;44.788;10.366;2024-01-16T01:52:47;17.20;61.30
44477;DHT22;30180;44.788;10.366;2024-01-16T01:55:15;17.20;61.30
44477;DHT22;30180;44.788;10.366;2024-01-16T01:57:43;17.20;61.30
44477;DHT22;30180;44.788;10.366;2024-01-16T02:00:13;17.20;61.30
44477;DHT22;30180;44.788;10.366;2024-01-16T02:02:46;17.20;61.30
44477;DHT22;30180;44.788;10.366;2024-01-16T02:05:14;17.20;61.20
44477;DHT22;30180;44.788;10.366;2024-01-16T02:07:44;17.20;61.20
44477;DHT22;30180;44.788;10.366;2024-01-16T02:10:13;17.20;61.20
44477;DHT22;30180;44.788;10.366;2024-01-16T02:12:41;17.20;61.20
44477;DHT22;30180;44.788;10.366;2024-01-16T02:15:09;17.20;61.30
44477;DHT22;30180;44.788;10.366;2024-01-16T02:17:38;17.20;61.20
44477;DHT22;30180;44.788;10.366;2024-01-16T02:20:07;17.10;61.20
44477;DHT22;30180;44.788;10.366;2024-01-16T02:22:36;17.20;61.20
44477;DHT22;30180;44.788;10.366;2024-01-16T02:25:07;17.10;61.20
44477;DHT22;30180;44.788;10.366;2024-01-16T02:27:35;17.10;61.20
44477;DHT22;30180;44.788;10.366;2024-01-16T02:30:04;17.10;61.20
44477;DHT22;30180;44.788;10.366;2024-01-16T02:32:33;17.10;61.20
44477;DHT22;30180;44.788;10.366;2024-01-16T02:35:02;17.10;61.20
44477;DHT22;30180;44.788;10.366;2024-01-16T02:37:32;17.10;61.20
44477;DHT22;30180;44.788;10.366;2024-01-16T02:40:00;17.10;61.20
44477;DHT22;30180;44.788;10.366;2024-01-16T02:42:33;17.10;61.20
44477;DHT22;30180;44.788;10.366;2024-01-16T02:45:02;17.10;61.20
44477;DHT22;30180;44.788;10.366;2024-01-16T02:47:30;17.10;61.20
44477;DHT22;30180;44.788;10.366;2024-01-16T02:49:59;17.10;61.20
44477;DHT22;30180;44.788;10.366;2024-01-16T02:52:28;17.10;61.10
44477;DHT22;30180;44.788;10.366;2024-01-16T02:54:57;17.00;61.10
44477;DHT22;30180;44.788;10.366;2024-01-16T02:57:25;17.00;61.10
44477;DHT22;30180;44.788;10.366;2024-01-16T02:59:54;17.10;61.20
44477;DHT22;30180;44.788;10.366;2024-01-16T03:02:23;17.00;61.10
44477;DHT22;30180;44.788;10.366;2024-01-16T03:04:51;17.00;61.10
44477;DHT22;30180;44.788;10.366;2024-01-16T03:07:19;17.00;61.10
44477;DHT22;30180;44.788;10.366;2024-01-16T03:09:48;17.00;61.10
44477;DHT22;30180;44.788;10.366;2024-01-16T03:12:16;17.00;61.00
44477;DHT22;30180;44.788;10.366;2024-01-16T03:14:44;17.00;61.10
44477;DHT22;30180;44.788;10.366;2024-01-16T03:17:14;17.00;61.00
44477;DHT22;30180;44.788;10.366;2024-01-16T03:19:42;17.00;61.10
44477;DHT22;30180;44.788;10.366;2024-01-16T03:22:11;17.00;61.00
44477;DHT22;30180;44.788;10.366;2024-01-16T03:24:40;17.00;61.00
44477;DHT22;30180;44.788;10.366;2024-01-16T03:27:08;17.00;61.00
44477;DHT22;30180;44.788;10.366;2024-01-16T03:29:36;17.00;61.00
44477;DHT22;30180;44.788;10.366;2024-01-16T03:32:05;17.00;61.00
44477;DHT22;30180;44.788;10.366;2024-01-16T03:34:35;17.00;61.00
44477;DHT22;30180;44.788;10.366;2024-01-16T03:37:03;17.00;61.00
44477;DHT22;30180;44.788;10.366;2024-01-16T03:39:32;17.00;61.00
44477;DHT22;30180;44.788;10.366;2024-01-16T03:42:00;17.00;61.00
44477;DHT22;30180;44.788;10.366;2024-01-16T03:44:28;17.00;61.00
44477;DHT22;30180;44.788;10.366;2024-01-16T03:46:57;17.00;61.00
44477;DHT22;30180;44.788;10.366;2024-01-16T03:49:25;17.00;61.00
44477;DHT22;30180;44.788;10.366;2024-01-16T03:51:55;16.90;60.90
44477;DHT22;30180;44.788;10.366;2024-01-16T03:54:23;16.90;61.00
44477;DHT22;30180;44.788;10.366;2024-01-16T03:56:53;16.90;60.90
44477;DHT22;30180;44.788;10.366;2024-01-16T03:59:22;16.90;60.90
44477;DHT22;30180;44.788;10.366;2024-01-16T04:01:51;16.90;61.00
44477;DHT22;30180;44.788;10.366;2024-01-16T04:04:19;16.90;60.90
44477;DHT22;30180;44.788;10.366;2024-01-16T04:06:49;16.90;60.90
44477;DHT22;30180;44.788;10.366;2024-01-16T04:09:19;16.90;60.90
44477;DHT22;30180;44.788;10.366;2024-01-16T04:11:50;16.90;60.90
44477;DHT22;30180;44.788;10.366;2024-01-16T04:14:18;16.90;60.90
44477;DHT22;30180;44.788;10.366;2024-01-16T04:16:47;16.90;60.90
44477;DHT22;30180;44.788;10.366;2024-01-16T04:19:15;16.90;60.90
44477;DHT22;30180;44.788;10.366;2024-01-16T04:21:44;16.90;60.90
44477;DHT22;30180;44.788;10.366;2024-01-16T04:24:13;16.90;60.90
44477;DHT22;30180;44.788;10.366;2024-01-16T04:26:42;16.90;60.90
44477;DHT22;30180;44.788;10.366;2024-01-16T04:29:11;16.90;61.00
44477;DHT22;30180;44.788;10.366;2024-01-16T04:31:41;16.90;60.90
44477;DHT22;30180;44.788;10.366;2024-01-16T04:34:09;16.90;61.00
44477;DHT22;30180;44.788;10.366;2024-01-16T04:36:38;16.90;60.90
44477;DHT22;30180;44.788;10.366;2024-01-16T04:39:06;16.90;61.00
44477;DHT22;30180;44.788;10.366;2024-01-16T04:41:35;16.90;61.00
44477;DHT22;30180;44.788;10.366;2024-01-16T04:44:05;16.90;61.00
44477;DHT22;30180;44.788;10.366;2024-01-16T04:46:33;16.90;61.60
44477;DHT22;30180;44.788;10.366;2024-01-16T04:49:02;17.00;61.00
44477;DHT22;30180;44.788;10.366;2024-01-16T04:51:30;17.00;61.60
44477;DHT22;30180;44.788;10.366;2024-01-16T04:53:59;17.00;61.00
44477;DHT22;30180;44.788;10.366;2024-01-16T04:56:27;17.00;61.00
44477;DHT22;30180;44.788;10.366;2024-01-16T04:58:55;17.00;61.00
44477;DHT22;30180;44.788;10.366;2024-01-16T05:01:25;17.00;61.00
44477;DHT22;30180;44.788;10.366;2024-01-16T05:03:53;17.00;61.00
44477;DHT22;30180;44.788;10.366;2024-01-16T05:06:22;17.00;61.00
44477;DHT22;30180;44.788;10.366;2024-01-16T05:08:50;17.00;61.00
44477;DHT22;30180;44.788;10.366;2024-01-16T05:11:18;17.00;61.00
44477;DHT22;30180;44.788;10.366;2024-01-16T05:13:47;17.10;61.10
44477;DHT22;30180;44.788;10.366;2024-01-16T05:16:15;17.10;61.10
44477;DHT22;30180;44.788;10.366;2024-01-16T05:18:45;17.10;61.10
44477;DHT22;30180;44.788;10.366;2024-01-16T05:21:13;17.10;61.10
44477;DHT22;30180;44.788;10.366;2024-01-16T05:23:41;17.10;61.10
44477;DHT22;30180;44.788;10.366;2024-01-16T05:26:10;17.10;61.10
44477;DHT22;30180;44.788;10.366;2024-01-16T05:28:38;17.20;61.10
44477;DHT22;30180;44.788;10.366;2024-01-16T05:31:07;17.20;61.10
44477;DHT22;30180;44.788;10.366;2024-01-16T05:33:35;17.20;61.10
44477;DHT22;30180;44.788;10.366;2024-01-16T05:36:06;17.20;61.10
44477;DHT22;30180;44.788;10.366;2024-01-16T05:38:34;17.20;61.10
44477;DHT22;30180;44.788;10.366;2024-01-16T05:41:04;17.20;61.10
44477;DHT22;30180;44.788;10.366;2024-01-16T05:43:33;17.20;61.10
44477;DHT22;30180;44.788;10.366;2024-01-16T05:46:01;17.20;61.00
44477;DHT22;30180;44.788;10.366;2024-01-16T05:48:29;17.30;61.10
44477;DHT22;30180;44.788;10.366;2024-01-16T05:50:58;17.30;61.10
44477;DHT22;30180;44.788;10.366;2024-01-16T05:53:28;17.30;61.10
44477;DHT22;30180;44.788;10.366;2024-01-16T05:55:56;17.30;61.10
44477;DHT22;30180;44.788;10.366;2024-01-16T05:58:24;17.30;61.00
44477;DHT22;30180;44.788;10.366;2024-01-16T06:00:52;17.30;61.00
44477;DHT22;30180;44.788;10.366;2024-01-16T06:03:22;17.30;61.00
44477;DHT22;30180;44.788;10.366;2024-01-16T06:05:51;17.30;61.00
44477;DHT22;30180;44.788;10.366;2024-01-16T06:08:19;17.30;61.00
44477;DHT22;30180;44.788;10.366;2024-01-16T06:10:49;17.30;61.00
44477;DHT22;30180;44.788;10.366;2024-01-16T06:13:18;17.30;60.90
44477;DHT22;30180;44.788;10.366;2024-01-16T06:15:46;17.30;60.90
44477;DHT22;30180;44.788;10.366;2024-01-16T06:18:15;17.30;60.90
44477;DHT22;30180;44.788;10.366;2024-01-16T06:20:43;17.30;60.90
44477;DHT22;30180;44.788;10.366;2024-01-16T06:23:11;17.30;60.90
44477;DHT22;30180;44.788;10.366;2024-01-16T06:25:40;17.30;60.90
44477;DHT22;30180;44.788;10.366;2024-01-16T06:28:09;17.30;60.90
44477;DHT22;30180;44.788;10.366;2024-01-16T06:30:38;17.30;60.90
44477;DHT22;30180;44.788;10.366;2024-01-16T06:33:07;17.30;60.90
44477;DHT22;30180;44.788;10.366;2024-01-16T06:35:35;17.30;60.90
44477;DHT22;30180;44.788;10.366;2024-01-16T06:38:03;17.30;60.90
44477;DHT22;30180;44.788;10.366;2024-01-16T06:40:32;17.30;60.80
44477;DHT22;30180;44.788;10.366;2024-01-16T06:43:00;17.30;60.80
44477;DHT22;30180;44.788;10.366;2024-01-16T06:45:30;17.30;60.80
44477;DHT22;30180;44.788;10.366;2024-01-16T06:47:58;17.30;60.80
44477;DHT22;30180;44.788;10.366;2024-01-16T06:50:27;17.30;60.80
44477;DHT22;30180;44.788;10.366;2024-01-16T06:52:55;17.30;60.80
44477;DHT22;30180;44.788;10.366;2024-01-16T06:55:24;17.30;60.80
44477;DHT22;30180;44.788;10.366;2024-01-16T06:57:52;17.30;60.80
44477;DHT22;30180;44.788;10.366;2024-01-16T07:00:20;17.30;60.80
44477;DHT22;30180;44.788;10.366;2024-01-16T07:02:51;17.30;60.80
44477;DHT22;30180;44.788;10.366;2024-01-16T07:05:19;17.30;60.80
44477;DHT22;30180;44.788;10.366;2024-01-16T07:07:48;17.30;60.80
44477;DHT22;30180;44.788;10.366;2024-01-16T07:10:16;17.30;60.80
44477;DHT22;30180;44.788;10.366;2024-01-16T07:12:46;17.30;60.80
44477;DHT22;30180;44.788;10.366;2024-01-16T07:15:16;17.30;60.80
44477;DHT22;30180;44.788;10.366;2024-01-16T07:17:45;17.30;60.80
44477;DHT22;30180;44.788;10.366;2024-01-16T07:20:15;17.30;60.80
44477;DHT22;30180;44.788;10.366;2024-01-16T07:22:43;17.30;60.70
44477;DHT22;30180;44.788;10.366;2024-01-16T07:25:12;17.30;60.70
44477;DHT22;30180;44.788;10.366;2024-01-16T07:27:40;17.30;60.70
44477;DHT22;30180;44.788;10.366;2024-01-16T07:30:12;17.40;60.80
44477;DHT22;30180;44.788;10.366;2024-01-16T07:32:41;17.40;60.80
44477;DHT22;30180;44.788;10.366;2024-01-16T07:35:10;17.40;60.80
44477;DHT22;30180;44.788;10.366;2024-01-16T07:37:39;17.40;60.70
44477;DHT22;30180;44.788;10.366;2024-01-16T07:40:08;17.50;60.80
44477;DHT22;30180;44.788;10.366;2024-01-16T07:42:36;17.50;60.80
44477;DHT22;30180;44.788;10.366;2024-01-16T07:45:06;17.50;60.80
44477;DHT22;30180;44.788;10.366;2024-01-16T07:47:34;17.50;60.80
44477;DHT22;30180;44.788;10.366;2024-01-16T07:50:04;17.60;60.80
44477;DHT22;30180;44.788;10.366;2024-01-16T07:52:34;17.60;60.90
44477;DHT22;30180;44.788;10.366;2024-01-16T07:55:04;17.60;60.90
44477;DHT22;30180;44.788;10.366;2024-01-16T07:57:33;17.60;60.80
44477;DHT22;30180;44.788;10.366;2024-01-16T08:00:01;17.70;60.90
44477;DHT22;30180;44.788;10.366;2024-01-16T08:02:32;17.60;60.80
44477;DHT22;30180;44.788;10.366;2024-01-16T08:05:01;17.70;60.80
44477;DHT22;30180;44.788;10.366;2024-01-16T08:07:29;17.70;60.80
44477;DHT22;30180;44.788;10.366;2024-01-16T08:09:58;17.70;60.80
44477;DHT22;30180;44.788;10.366;2024-01-16T08:12:28;17.70;60.80
44477;DHT22;30180;44.788;10.366;2024-01-16T08:14:58;17.70;60.80
44477;DHT22;30180;44.788;10.366;2024-01-16T08:17:26;17.70;60.80
44477;DHT22;30180;44.788;10.366;2024-01-16T08:19:54;17.70;61.50
44477;DHT22;30180;44.788;10.366;2024-01-16T08:22:23;17.80;60.90
44477;DHT22;30180;44.788;10.366;2024-01-16T08:24:51;17.80;60.80
44477;DHT22;30180;44.788;10.366;2024-01-16T08:27:19;17.80;60.80
44477;DHT22;30180;44.788;10.366;2024-01-16T08:29:49;17.80;60.80
44477;DHT22;30180;44.788;10.366;2024-01-16T08:32:17;17.80;60.80
44477;DHT22;30180;44.788;10.366;2024-01-16T08:34:46;17.80;60.80
44477;DHT22;30180;44.788;10.366;2024-01-16T08:37:15;17.80;60.90
44477;DHT22;30180;44.788;10.366;2024-01-16T08:39:43;17.80;60.90
44477;DHT22;30180;44.788;10.366;2024-01-16T08:42:11;17.90;60.90
44477;DHT22;30180;44.788;10.366;2024-01-16T08:44:40;17.90;61.00
44477;DHT22;30180;44.788;10.366;2024-01-16T08:47:09;17.90;60.90
44477;DHT22;30180;44.788;10.366;2024-01-16T08:49:38;17.90;60.90
44477;DHT22;30180;44.788;10.366;2024-01-16T08:52:07;17.90;60.90
44477;DHT22;30180;44.788;10.366;2024-01-16T08:54:35;18.00;60.90
44477;DHT22;30180;44.788;10.366;2024-01-16T08:57:04;18.00;60.90
44477;DHT22;30180;44.788;10.366;2024-01-16T08:59:32;18.00;60.90
44477;DHT22;30180;44.788;10.366;2024-01-16T09:02:01;18.00;60.90
44477;DHT22;30180;44.788;10.366;2024-01-16T09:04:31;18.00;60.90
44477;DHT22;30180;44.788;10.366;2024-01-16T09:07:01;18.00;60.90
44477;DHT22;30180;44.788;10.366;2024-01-16T09:09:32;18.10;60.90
44477;DHT22;30180;44.788;10.366;2024-01-16T09:12:00;18.10;60.90
44477;DHT22;30180;44.788;10.366;2024-01-16T09:14:28;18.10;61.00
44477;DHT22;30180;44.788;10.366;2024-01-16T09:16:57;18.20;61.00
44477;DHT22;30180;44.788;10.366;2024-01-16T09:19:25;18.20;61.00
44477;DHT22;30180;44.788;10.366;2024-01-16T09:21:55;18.20;61.00
44477;DHT22;30180;44.788;10.366;2024-01-16T09:24:23;18.20;61.00
44477;DHT22;30180;44.788;10.366;2024-01-16T09:26:52;18.30;61.00
44477;DHT22;30180;44.788;10.366;2024-01-16T09:29:20;18.30;61.00
44477;DHT22;30180;44.788;10.366;2024-01-16T09:31:49;18.40;61.00
44477;DHT22;30180;44.788;10.366;2024-01-16T09:34:17;18.40;61.00
44477;DHT22;30180;44.788;10.366;2024-01-16T09:36:46;18.40;61.00
44477;DHT22;30180;44.788;10.366;2024-01-16T09:39:15;18.40;61.00
44477;DHT22;30180;44.788;10.366;2024-01-16T09:41:45;18.40;61.00
44477;DHT22;30180;44.788;10.366;2024-01-16T09:44:14;18.50;61.00
44477;DHT22;30180;44.788;10.366;2024-01-16T09:46:44;18.50;61.00
44477;DHT22;30180;44.788;10.366;2024-01-16T09:49:14;18.50;60.90
44477;DHT22;30180;44.788;10.366;2024-01-16T09:51:43;18.50;60.90
44477;DHT22;30180;44.788;10.366;2024-01-16T09:54:11;18.50;60.80
44477;DHT22;30180;44.788;10.366;2024-01-16T09:56:43;18.50;60.80
44477;DHT22;30180;44.788;10.366;2024-01-16T09:59:16;18.60;60.90
44477;DHT22;30180;44.788;10.366;2024-01-16T10:01:47;18.60;60.90
44477;DHT22;30180;44.788;10.366;2024-01-16T10:04:16;18.60;60.90
44477;DHT22;30180;44.788;10.366;2024-01-16T10:06:45;18.60;60.80
44477;DHT22;30180;44.788;10.366;2024-01-16T10:09:15;18.60;60.80
44477;DHT22;30180;44.788;10.366;2024-01-16T10:11:45;18.60;60.80
44477;DHT22;30180;44.788;10.366;2024-01-16T10:14:15;18.60;60.70
44477;DHT22;30180;44.788;10.366;2024-01-16T10:17:00;18.60;60.70
44477;DHT22;30180;44.788;10.366;2024-01-16T10:19:32;18.70;60.80
44477;DHT22;30180;44.788;10.366;2024-01-16T10:22:19;18.60;60.70
44477;DHT22;30180;44.788;10.366;2024-01-16T10:25:04;18.70;60.70
44477;DHT22;30180;44.788;10.366;2024-01-16T10:27:34;18.70;60.70
44477;DHT22;30180;44.788;10.366;2024-01-16T10:30:03;18.70;60.70
44477;DHT22;30180;44.788;10.366;2024-01-16T10:32:34;18.70;60.70
44477;DHT22;30180;44.788;10.366;2024-01-16T10:35:04;18.70;60.70
44477;DHT22;30180;44.788;10.366;2024-01-16T10:37:43;18.70;60.70
44477;DHT22;30180;44.788;10.366;2024-01-16T10:40:15;18.70;60.70
44477;DHT22;30180;44.788;10.366;2024-01-16T10:42:57;18.70;60.60
44477;DHT22;30180;44.788;10.366;2024-01-16T10:45:26;18.70;60.70
44477;DHT22;30180;44.788;10.366;2024-01-16T10:48:01;18.70;60.70
44477;DHT22;30180;44.788;10.366;2024-01-16T10:50:32;18.70;60.60
44477;DHT22;30180;44.788;10.366;2024-01-16T10:53:03;18.80;60.70
44477;DHT22;30180;44.788;10.366;2024-01-16T10:55:37;18.80;60.60
44477;DHT22;30180;44.788;10.366;2024-01-16T10:58:09;18.80;60.60
44477;DHT22;30180;44.788;10.366;2024-01-16T11:00:42;18.80;60.60
44477;DHT22;30180;44.788;10.366;2024-01-16T11:03:18;18.80;60.60
44477;DHT22;30180;44.788;10.366;2024-01-16T11:05:47;18.80;60.60
44477;DHT22;30180;44.788;10.366;2024-01-16T11:08:16;18.80;60.60
44477;DHT22;30180;44.788;10.366;2024-01-16T11:10:45;18.80;60.60
44477;DHT22;30180;44.788;10.366;2024-01-16T11:13:17;18.90;60.60
44477;DHT22;30180;44.788;10.366;2024-01-16T11:15:46;18.90;60.60
44477;DHT22;30180;44.788;10.366;2024-01-16T11:18:17;19.00;60.60
44477;DHT22;30180;44.788;10.366;2024-01-16T11:20:46;18.90;60.50
44477;DHT22;30180;44.788;10.366;2024-01-16T11:23:32;18.90;60.40
44477;DHT22;30180;44.788;10.366;2024-01-16T11:26:24;18.90;60.40
44477;DHT22;30180;44.788;10.366;2024-01-16T11:28:54;18.90;60.40
44477;DHT22;30180;44.788;10.366;2024-01-16T11:31:30;18.90;60.40
44477;DHT22;30180;44.788;10.366;2024-01-16T11:33:59;18.90;60.40
44477;DHT22;30180;44.788;10.366;2024-01-16T11:36:50;19.00;60.40
44477;DHT22;30180;44.788;10.366;2024-01-16T11:39:23;19.00;60.50
44477;DHT22;30180;44.788;10.366;2024-01-16T11:41:54;19.00;60.60
44477;DHT22;30180;44.788;10.366;2024-01-16T11:44:43;19.00;60.50
44477;DHT22;30180;44.788;10.366;2024-01-16T11:47:17;19.10;60.40
44477;DHT22;30180;44.788;10.366;2024-01-16T11:49:46;19.10;60.30
44477;DHT22;30180;44.788;10.366;2024-01-16T11:52:15;19.10;60.20
44477;DHT22;30180;44.788;10.366;2024-01-16T11:55:25;19.10;60.10
44477;DHT22;30180;44.788;10.366;2024-01-16T12:00:49;19.10;59.90
44477;DHT22;30180;44.788;10.366;2024-01-16T12:03:21;19.10;59.90
44477;DHT22;30180;44.788;10.366;2024-01-16T12:06:01;19.10;59.80
44477;DHT22;30180;44.788;10.366;2024-01-16T12:08:33;19.10;59.80
44477;DHT22;30180;44.788;10.366;2024-01-16T12:11:04;19.00;59.60
44477;DHT22;30180;44.788;10.366;2024-01-16T12:13:32;19.00;59.60
44477;DHT22;30180;44.788;10.366;2024-01-16T12:16:03;19.00;59.60
44477;DHT22;30180;44.788;10.366;2024-01-16T12:18:32;19.00;59.60
44477;DHT22;30180;44.788;10.366;2024-01-16T12:21:11;19.00;59.50
44477;DHT22;30180;44.788;10.366;2024-01-16T12:23:40;19.00;59.50
44477;DHT22;30180;44.788;10.366;2024-01-16T12:26:21;19.00;59.40
44477;DHT22;30180;44.788;10.366;2024-01-16T12:28:51;18.90;59.40
44477;DHT22;30180;44.788;10.366;2024-01-16T12:31:27;18.90;59.40
44477;DHT22;30180;44.788;10.366;2024-01-16T12:34:05;18.90;59.30
44477;DHT22;30180;44.788;10.366;2024-01-16T12:36:36;18.90;59.30
44477;DHT22;30180;44.788;10.366;2024-01-16T12:39:04;18.80;59.20
44477;DHT22;30180;44.788;10.366;2024-01-16T12:41:36;18.90;59.30
44477;DHT22;30180;44.788;10.366;2024-01-16T12:44:09;18.80;59.20
44477;DHT22;30180;44.788;10.366;2024-01-16T12:46:53;18.80;59.20
44477;DHT22;30180;44.788;10.366;2024-01-16T12:49:23;18.80;59.10
44477;DHT22;30180;44.788;10.366;2024-01-16T12:52:15;18.80;59.10
44477;DHT22;30180;44.788;10.366;2024-01-16T12:54:45;18.70;59.00
44477;DHT22;30180;44.788;10.366;2024-01-16T12:57:17;18.80;59.00
44477;DHT22;30180;44.788;10.366;2024-01-16T12:59:48;18.70;59.00
44477;DHT22;30180;44.788;10.366;2024-01-16T13:02:21;18.70;58.90
44477;DHT22;30180;44.788;10.366;2024-01-16T13:04:57;18.70;58.90
44477;DHT22;30180;44.788;10.366;2024-01-16T13:07:27;18.70;58.90
44477;DHT22;30180;44.788;10.366;2024-01-16T13:10:08;18.70;58.90
44477;DHT22;30180;44.788;10.366;2024-01-16T13:12:39;18.60;58.80
44477;DHT22;30180;44.788;10.366;2024-01-16T13:15:08;18.70;58.90
44477;DHT22;30180;44.788;10.366;2024-01-16T13:17:39;18.60;59.40
44477;DHT22;30180;44.788;10.366;2024-01-16T13:20:09;18.60;58.90
44477;DHT22;30180;44.788;10.366;2024-01-16T13:22:39;18.60;58.90
44477;DHT22;30180;44.788;10.366;2024-01-16T13:25:13;18.60;58.80
44477;DHT22;30180;44.788;10.366;2024-01-16T13:27:42;18.60;58.80
44477;DHT22;30180;44.788;10.366;2024-01-16T13:30:11;18.60;59.00
44477;DHT22;30180;44.788;10.366;2024-01-16T13:32:41;18.60;59.00
44477;DHT22;30180;44.788;10.366;2024-01-16T13:35:10;18.60;58.90
44477;DHT22;30180;44.788;10.366;2024-01-16T13:37:39;18.60;58.90
44477;DHT22;30180;44.788;10.366;2024-01-16T13:40:08;18.60;58.90
44477;DHT22;30180;44.788;10.366;2024-01-16T13:42:38;18.60;59.00
44477;DHT22;30180;44.788;10.366;2024-01-16T13:45:07;18.60;59.10
44477;DHT22;30180;44.788;10.366;2024-01-16T13:47:36;18.60;59.10
44477;DHT22;30180;44.788;10.366;2024-01-16T13:50:09;18.70;59.10
44477;DHT22;30180;44.788;10.366;2024-01-16T13:52:40;18.70;59.10
44477;DHT22;30180;44.788;10.366;2024-01-16T13:55:08;18.70;59.10
44477;DHT22;30180;44.788;10.366;2024-01-16T13:57:37;18.70;59.10
44477;DHT22;30180;44.788;10.366;2024-01-16T14:00:07;18.70;59.10
44477;DHT22;30180;44.788;10.366;2024-01-16T14:02:40;18.70;59.10
44477;DHT22;30180;44.788;10.366;2024-01-16T14:05:11;18.70;59.10
44477;DHT22;30180;44.788;10.366;2024-01-16T14:07:42;18.70;59.00
44477;DHT22;30180;44.788;10.366;2024-01-16T14:10:13;18.70;59.00
44477;DHT22;30180;44.788;10.366;2024-01-16T14:12:42;18.70;59.00
44477;DHT22;30180;44.788;10.366;2024-01-16T14:15:12;18.70;58.90
44477;DHT22;30180;44.788;10.366;2024-01-16T14:17:47;18.70;58.90
44477;DHT22;30180;44.788;10.366;2024-01-16T14:20:18;18.70;58.90
44477;DHT22;30180;44.788;10.366;2024-01-16T14:22:54;18.70;58.90
44477;DHT22;30180;44.788;10.366;2024-01-16T14:25:23;18.60;58.80
44477;DHT22;30180;44.788;10.366;2024-01-16T14:27:57;18.60;58.80
44477;DHT22;30180;44.788;10.366;2024-01-16T14:30:26;18.60;58.80
44477;DHT22;30180;44.788;10.366;2024-01-16T14:32:55;18.60;58.80
44477;DHT22;30180;44.788;10.366;2024-01-16T14:35:25;18.60;58.80
44477;DHT22;30180;44.788;10.366;2024-01-16T14:37:53;18.60;58.80
44477;DHT22;30180;44.788;10.366;2024-01-16T14:40:22;18.60;58.70
44477;DHT22;30180;44.788;10.366;2024-01-16T14:42:54;18.60;59.40
44477;DHT22;30180;44.788;10.366;2024-01-16T14:45:24;18.60;58.70
44477;DHT22;30180;44.788;10.366;2024-01-16T14:47:53;18.60;58.70
44477;DHT22;30180;44.788;10.366;2024-01-16T14:50:22;18.50;58.70
44477;DHT22;30180;44.788;10.366;2024-01-16T14:52:53;18.50;58.70
44477;DHT22;30180;44.788;10.366;2024-01-16T14:55:21;18.50;58.70
44477;DHT22;30180;44.788;10.366;2024-01-16T14:57:52;18.50;58.70
44477;DHT22;30180;44.788;10.366;2024-01-16T15:00:27;18.50;58.70
44477;DHT22;30180;44.788;10.366;2024-01-16T15:02:57;18.50;58.70
44477;DHT22;30180;44.788;10.366;2024-01-16T15:05:26;18.50;58.80
44477;DHT22;30180;44.788;10.366;2024-01-16T15:07:55;18.50;58.70
44477;DHT22;30180;44.788;10.366;2024-01-16T15:10:25;18.50;58.70
44477;DHT22;30180;44.788;10.366;2024-01-16T15:12:53;18.60;58.80
44477;DHT22;30180;44.788;10.366;2024-01-16T15:15:21;18.50;58.70
44477;DHT22;30180;44.788;10.366;2024-01-16T15:17:50;18.50;58.70
44477;DHT22;30180;44.788;10.366;2024-01-16T15:20:19;18.50;58.70
44477;DHT22;30180;44.788;10.366;2024-01-16T15:22:47;18.60;58.80
44477;DHT22;30180;44.788;10.366;2024-01-16T15:25:20;18.60;58.80
44477;DHT22;30180;44.788;10.366;2024-01-16T15:27:51;18.60;58.70
44477;DHT22;30180;44.788;10.366;2024-01-16T15:30:21;18.60;58.80
44477;DHT22;30180;44.788;10.366;2024-01-16T15:32:54;18.50;58.60
44477;DHT22;30180;44.788;10.366;2024-01-16T15:35:23;18.50;58.70